CDT,Max TemperatureF,Mean TemperatureF,Min TemperatureF,Max Dew PointF,MeanDew PointF,Min DewpointF,Max Humidity, Mean Humidity, Min Humidity, Max Sea Level PressureIn, Mean Sea Level PressureIn, Min Sea Level PressureIn, Max VisibilityMiles, Mean VisibilityMiles, Min VisibilityMiles, Max Wind SpeedMPH, Mean Wind SpeedMPH, Max Gust SpeedMPH,PrecipitationIn, CloudCover, Events, WindDirDegrees
2013-7-1,84,71,59,61,58,52,94,63,33,30.21,30.18,30.16,10,10,7,12,2,,0.00,2,,25
2013-7-2,83,71,59,63,56,52,88,61,36,30.19,30.14,30.07,10,10,5,10,3,,0.00,1,,46
2013-7-3,82,69,56,61,56,51,97,61,35,30.09,30.04,29.97,10,10,7,10,1,,0.00,1,,122
2013-7-4,88,74,61,62,58,55,89,58,32,29.98,29.92,29.86,10,10,10,14,4,22,0.00,1,,168
2013-7-5,88,79,70,66,61,57,67,57,43,29.89,29.85,29.80,10,10,10,17,10,26,0.00,1,,174
2013-7-6,89,80,71,74,66,61,73,64,53,29.89,29.85,29.81,10,10,10,13,6,18,0.00,1,Rain,164
2013-7-7,89,80,71,75,69,66,90,71,55,29.92,29.86,29.84,10,10,7,16,4,25,0.00,2,,183
2013-7-8,86,76,65,72,69,65,100,81,53,30.04,29.98,29.92,10,8,2,12,3,,0.00,2,,58
2013-7-9,83,76,68,72,69,64,98,80,64,29.99,29.89,29.75,10,10,1,22,9,38,0.74,3,Rain,259
2013-7-10,79,70,60,65,59,56,94,70,47,30.09,30.06,29.99,10,10,7,15,9,24,0.00,0,,313
2013-7-11,83,70,56,62,59,56,100,68,41,30.13,30.06,29.97,10,8,2,13,3,17,0.00,0,,152
2013-7-12,87,78,68,67,62,57,73,60,47,30.00,29.95,29.88,10,10,10,16,9,26,0.00,0,,159
2013-7-13,77,72,67,71,66,62,92,83,61,30.06,29.99,29.91,10,10,3,17,10,26,0.32,4,Rain,134
2013-7-14,82,74,67,72,66,62,93,78,59,30.19,30.12,30.04,10,10,10,12,7,17,0.00,4,Rain,142
2013-7-15,86,74,64,71,68,64,97,75,53,30.25,30.21,30.17,10,10,5,9,3,,0.00,1,,151
2013-7-16,89,80,71,73,71,68,95,73,50,30.24,30.21,30.18,10,10,7,12,4,17,0.00,0,,193
2013-7-17,91,80,70,75,71,68,92,72,51,30.27,30.22,30.13,10,10,7,12,3,16,0.00,1,,213
2013-7-18,91,82,72,73,71,70,93,69,49,30.13,29.96,29.79,10,10,10,17,7,24,0.00,0,,200
2013-7-19,82,74,67,72,65,61,91,68,48,29.94,29.87,29.77,10,10,10,15,9,22,0.00,1,,285
2013-7-20,79,69,60,65,62,59,96,76,58,29.98,29.94,29.91,10,10,7,10,3,,0.00,2,,4
2013-7-21,82,72,62,70,65,58,97,80,62,29.96,29.89,29.80,10,10,2,12,6,16,0.37,3,Rain,91
2013-7-22,83,73,63,72,65,57,96,78,55,29.91,29.77,29.71,10,10,7,17,7,25,0.00,2,,263
2013-7-23,76,66,56,59,56,52,96,70,43,30.04,29.99,29.90,10,10,7,13,6,16,0.00,1,,2
2013-7-24,78,68,57,61,58,55,97,72,45,30.08,30.04,29.99,10,10,5,10,2,16,0.00,4,,264
2013-7-25,78,68,58,68,62,57,96,76,56,30.01,29.97,29.94,10,10,2,14,4,24,0.18,2,Rain,255
2013-7-26,69,60,51,64,54,48,97,77,58,30.13,30.03,29.95,10,10,4,22,8,32,0.00,4,Rain,316
2013-7-27,66,56,48,49,47,44,93,68,51,30.13,30.05,29.97,10,10,10,18,9,29,0.00,5,,325
2013-7-28,72,59,46,56,50,45,96,74,49,30.09,30.03,30.00,10,10,10,14,6,17,0.00,2,,328
2013-7-29,75,61,47,63,55,46,99,75,47,30.14,30.10,30.08,10,10,10,8,2,,0.00,3,Rain,134
2013-7-30,70,65,59,66,63,59,100,90,80,30.11,30.10,30.06,10,9,0,6,1,,0.14,7,Fog-Rain,120
2013-7-31,78,66,55,67,60,54,100,85,50,30.11,30.08,30.03,10,7,0,15,3,24,0.03,2,Fog-Rain,272